KOWB/OWB METAR and TAF weather

Enter ICAO airport designator
Station Type Date Time Source
KOWB METAR 2019/06/17 04:49 UTC NOAA

KOWB 170449Z AUTO 15005KT 10SM -RA FEW006 SCT055 BKN110 21/21 A2995 RMK AO2 P0005


Station Type Date Time Source
KOWB Decoded METAR 2019/06/17 04:49 UTC NOAA

Owensboro, Owensboro-Daviess County Airport, KY, United States (KOWB) 37-44-24N 087-10-00W
Jun 17, 2019 - 12:49 AM EDT / 2019.06.17 0449 UTC
Wind: from the SSE (150 degrees) at 6 MPH (5 KT):0
Visibility: 10 mile(s):0
Sky conditions: mostly cloudy
Weather: light rain
Precipitation last hour: 0.05 inches
Temperature: 69 F (21 C)
Dew Point: 69 F (21 C)
Relative Humidity: 100%
Pressure (altimeter): 29.95 in. Hg (1014 hPa)
ob: KOWB 170449Z AUTO 15005KT 10SM -RA FEW006 SCT055 BKN110 21/21 A2995 RMK AO2 P0005
cycle: 5

Station Type Date Time Source
KOWB TAF 2019/06/17 04:12 UTC NOAA

TAF
AMD KOWB 170409Z 1704/1724 15005KT P6SM -SHRA SCT030 OVC050
FM170500 VRB04KT P6SM VCSH SCT025 OVC150
FM171800 22007KT 6SM -SHRA BR SCT018 BKN080

Example: see airport list